Aviation Digital Data Service (ADDS)

Output produced by METARs form (0341 UTC 20 March 2019)
found at http://www.aviationweather.gov/metar/data/
 
Forecast for: EGLC (LONDON CITY AIRP, GB)
Text: TAF EGLC 200201Z 2003/2012 24005KT 9999 SCT045
Forecast period: 0300 to 1200 UTC 20 March 2019
Forecast type: FROM: standard forecast or significant change
Winds: from the WSW (240 degrees) at 6 MPH (5 knots; 2.6 m/s)
Visibility: 6 or more miles 10+ km)
Ceiling: at least 12,000 feet AGL
Clouds: scattered clouds at 4500 feet AGL
Weather: no significant weather forecast for this period
Text: TEMPO 2003/2011 7000 BKN012
Forecast period: 0300 to 1100 UTC 20 March 2019
Forecast type: TEMPORARY: The following changes expected for less than half the time period
Visibility: 4 miles (7 km)
Ceiling: 1200 feet AGL
Clouds: broken clouds at 1200 feet AGL
Weather: no significant weather forecast for this period
Text: PROB30
Forecast period: 0400 to 0900 UTC 20 March 2019
Forecast type: TEMPORARY: The following changes expected for less than half the time period
Visibility: missing
Ceiling: 600 feet AGL
Clouds: broken clouds at 600 feet AGL
Weather: no significant weather forecast for this period